Time;durP1;ratioP1;P1;durP2;ratioP2;P2;SDS_P1;SDS_P2;PMS_P1;PMS_P2;Temp;Humidity;BMP_temperature;BMP_pressure;BME280_temperature;BME280_humidity;BME280_pressure;Samples;Min_cycle;Max_cycle;Signal;HPM_P1;HPM_P2
2023/12/31 00:01:33;;;;;;;3.47;1.35;;;;;;;7.51;100.00;100617.25;7400178;19;19914;-72
2023/12/31 00:04:02;;;;;;;3.50;1.70;;;;;;;7.51;100.00;100614.59;7401436;19;19926;-72
2023/12/31 00:06:31;;;;;;;5.53;1.80;;;;;;;7.51;100.00;100620.78;7401930;19;19918;-72
2023/12/31 00:09:03;;;;;;;4.47;1.45;;;;;;;7.50;100.00;100615.63;7401845;19;19914;-72
2023/12/31 00:11:32;;;;;;;2.72;1.42;;;;;;;7.49;100.00;100606.72;7402179;19;19911;-72
2023/12/31 00:14:00;;;;;;;4.57;1.85;;;;;;;7.50;100.00;100599.53;7402138;19;19918;-72
2023/12/31 00:16:29;;;;;;;3.95;1.50;;;;;;;7.48;100.00;100597.00;7402694;19;19918;-72
2023/12/31 00:19:18;;;;;;;4.93;1.65;;;;;;;7.46;100.00;100592.81;7399750;19;19944;-72
2023/12/31 00:21:46;;;;;;;6.55;2.08;;;;;;;7.42;100.00;100581.56;7401756;19;19942;-72
2023/12/31 00:24:18;;;;;;;3.08;1.55;;;;;;;7.40;100.00;100575.53;7400904;19;19915;-72
2023/12/31 00:26:46;;;;;;;2.83;1.45;;;;;;;7.37;100.00;100577.72;7401958;19;19923;-72
2023/12/31 00:29:15;;;;;;;6.82;1.60;;;;;;;7.30;100.00;100570.31;7401079;19;19914;-72
2023/12/31 00:31:43;;;;;;;4.07;1.50;;;;;;;7.28;100.00;100572.34;7401785;19;19926;-71
2023/12/31 00:34:12;;;;;;;5.10;1.70;;;;;;;7.25;100.00;100566.44;7400584;19;19922;-72
2023/12/31 00:36:41;;;;;;;4.35;1.50;;;;;;;7.22;100.00;100561.41;7400214;19;19914;-71
2023/12/31 00:39:09;;;;;;;3.10;1.60;;;;;;;7.19;100.00;100554.56;7400026;19;19918;-72
2023/12/31 00:41:40;;;;;;;5.65;1.20;;;;;;;7.17;100.00;100561.06;7401067;19;19931;-71
2023/12/31 00:44:09;;;;;;;5.95;2.08;;;;;;;7.14;100.00;100561.41;7402113;19;20450;-72
2023/12/31 00:46:38;;;;;;;2.60;1.40;;;;;;;7.11;100.00;100559.91;7401363;19;19918;-73
2023/12/31 00:49:06;;;;;;;4.07;1.45;;;;;;;7.11;100.00;100556.38;7400585;19;19919;-71
2023/12/31 00:51:35;;;;;;;4.10;1.15;;;;;;;7.07;100.00;100552.34;7401126;19;20379;-72
2023/12/31 00:54:03;;;;;;;3.75;1.55;;;;;;;7.04;100.00;100548.13;7400378;19;19914;-72
2023/12/31 00:56:32;;;;;;;5.20;1.55;;;;;;;7.01;100.00;100548.47;7401338;19;19941;-72
2023/12/31 00:59:04;;;;;;;3.00;1.38;;;;;;;7.00;100.00;100549.47;7400979;19;19925;-72
2023/12/31 01:01:32;;;;;;;3.80;1.45;;;;;;;6.96;100.00;100553.47;7400594;19;20277;-71
2023/12/31 01:04:01;;;;;;;3.17;1.50;;;;;;;6.97;100.00;100555.16;7400425;19;19923;-72
2023/12/31 01:06:31;;;;;;;4.85;1.48;;;;;;;6.96;100.00;100545.44;7400170;19;19929;-72
2023/12/31 01:08:59;;;;;;;3.22;1.60;;;;;;;6.97;100.00;100549.78;7399883;19;19929;-72
2023/12/31 01:11:28;;;;;;;4.15;1.67;;;;;;;6.96;100.00;100534.72;7400625;19;20253;-72
2023/12/31 01:13:57;;;;;;;2.03;1.48;;;;;;;6.97;100.00;100533.72;7400317;19;19942;-72
2023/12/31 01:16:28;;;;;;;2.88;1.60;;;;;;;6.97;100.00;100523.00;7401182;19;19923;-72
2023/12/31 01:18:56;;;;;;;3.35;1.70;;;;;;;6.96;100.00;100521.34;7400692;19;19922;-72
2023/12/31 01:21:25;;;;;;;4.18;1.58;;;;;;;6.96;100.00;100518.66;7401631;19;20336;-72
2023/12/31 01:23:54;;;;;;;3.50;1.60;;;;;;;6.96;100.00;100513.28;7399495;19;19929;-72
2023/12/31 01:26:22;;;;;;;3.42;2.00;;;;;;;6.95;100.00;100513.44;7400227;19;19923;-72
2023/12/31 01:28:51;;;;;;;2.50;1.58;;;;;;;6.97;100.00;100508.78;7400483;19;19925;-72
2023/12/31 01:31:24;;;;;;;2.78;1.60;;;;;;;6.98;100.00;100503.28;7400865;19;19919;-71
2023/12/31 01:33:55;;;;;;;2.85;1.40;;;;;;;7.02;100.00;100504.63;7400203;19;19937;-72
2023/12/31 01:36:25;;;;;;;3.28;1.42;;;;;;;7.03;100.00;100494.75;7400314;19;19923;-72
2023/12/31 01:39:13;;;;;;;2.45;1.52;;;;;;;7.04;100.00;100497.25;7398345;19;20366;-72
2023/12/31 01:41:42;;;;;;;3.80;1.50;;;;;;;7.04;100.00;100502.59;7399649;19;19926;-72
2023/12/31 01:44:10;;;;;;;5.03;1.33;;;;;;;7.05;100.00;100496.25;7399605;19;20348;-72
2023/12/31 01:46:40;;;;;;;5.65;1.40;;;;;;;7.07;100.00;100494.25;7405753;19;19929;-72
2023/12/31 01:49:12;;;;;;;2.90;1.75;;;;;;;7.10;100.00;100493.09;7412986;19;20260;-72
2023/12/31 01:51:41;;;;;;;4.43;1.52;;;;;;;7.10;100.00;100493.09;7413363;19;19911;-72
2023/12/31 01:54:10;;;;;;;2.70;1.48;;;;;;;7.09;100.00;100489.56;7413498;19;19910;-72
2023/12/31 01:56:41;;;;;;;2.72;1.48;;;;;;;7.10;100.00;100479.69;7412999;19;19911;-72
2023/12/31 01:59:10;;;;;;;2.95;1.52;;;;;;;7.10;100.00;100485.06;7412844;19;19915;-72
2023/12/31 02:01:40;;;;;;;3.70;1.52;;;;;;;7.12;100.00;100485.75;7413675;19;19927;-72
2023/12/31 02:04:12;;;;;;;2.05;1.38;;;;;;;7.11;100.00;100482.22;7413082;19;20354;-72
2023/12/31 02:06:41;;;;;;;;;;;;;;;7.05;100.00;100468.63;7414735;19;19932;-72
2023/12/31 02:09:11;;;;;;;4.25;1.40;;;;;;;7.07;100.00;100475.50;7412976;19;20267;-72
2023/12/31 02:11:40;;;;;;;3.15;1.45;;;;;;;7.09;100.00;100460.09;7413321;19;19918;-71
2023/12/31 02:14:29;;;;;;;3.67;1.40;;;;;;;7.08;100.00;100449.53;7410928;19;19919;-71
2023/12/31 02:16:57;;;;;;;2.35;0.93;;;;;;;7.08;100.00;100453.06;7412334;19;19914;-70
2023/12/31 02:19:29;;;;;;;2.55;1.08;;;;;;;7.09;100.00;100437.84;7412199;19;19925;-71
2023/12/31 02:21:58;;;;;;;3.35;1.67;;;;;;;7.10;100.00;100431.47;7412259;19;19914;-70
2023/12/31 02:24:33;;;;;;;2.22;1.20;;;;;;;7.10;100.00;100426.97;7411619;19;19928;-71
2023/12/31 02:27:04;;;;;;;1.67;1.08;;;;;;;7.12;100.00;100426.81;7412338;19;19932;-71
2023/12/31 02:29:33;;;;;;;2.58;1.00;;;;;;;7.14;100.00;100425.63;7412191;19;19918;-71
2023/12/31 02:32:01;;;;;;;3.10;1.10;;;;;;;7.14;100.00;100414.06;7411962;19;20508;-71
2023/12/31 02:34:31;;;;;;;2.83;1.17;;;;;;;7.15;100.00;100418.44;7412196;19;20334;-71
2023/12/31 02:37:00;;;;;;;1.90;0.90;;;;;;;7.16;100.00;100399.50;7411919;19;20742;-71
2023/12/31 02:39:29;;;;;;;1.85;0.98;;;;;;;7.17;100.00;100398.50;7412209;19;19918;-71
2023/12/31 02:41:58;;;;;;;1.00;0.90;;;;;;;7.16;100.00;100391.47;7411873;19;19929;-71
2023/12/31 02:44:29;;;;;;;1.77;0.85;;;;;;;7.17;100.00;100377.06;7411255;19;19919;-71
2023/12/31 02:46:57;;;;;;;2.03;0.90;;;;;;;7.18;100.00;100388.63;7411434;19;20287;-71
2023/12/31 02:49:26;;;;;;;3.65;1.17;;;;;;;7.16;100.00;100378.06;7410847;19;19919;-71
2023/12/31 02:51:55;;;;;;;2.00;1.05;;;;;;;7.16;100.00;100367.34;7408162;19;19922;-71
2023/12/31 02:54:23;;;;;;;2.28;1.02;;;;;;;7.14;100.00;100361.34;7411819;19;20272;-71
2023/12/31 02:57:12;;;;;;;3.17;0.90;;;;;;;7.12;100.00;100349.94;7408799;19;19910;-71
2023/12/31 02:59:43;;;;;;;2.13;1.00;;;;;;;7.13;100.00;100348.09;7401603;19;19922;-71
2023/12/31 03:02:12;;;;;;;1.60;0.90;;;;;;;7.13;100.00;100346.28;7403231;19;19946;-71
2023/12/31 03:04:42;;;;;;;1.00;0.80;;;;;;;7.13;100.00;100346.28;7403587;19;19914;-71
2023/12/31 03:07:11;;;;;;;2.22;0.82;;;;;;;7.13;100.00;100340.06;7403524;19;19926;-71
2023/12/31 03:09:39;;;;;;;2.45;1.00;;;;;;;7.13;100.00;100345.44;7402793;19;19915;-71
2023/12/31 03:12:08;;;;;;;3.75;1.10;;;;;;;7.13;100.00;100338.22;7403115;19;19946;-71
2023/12/31 03:14:37;;;;;;;2.22;0.77;;;;;;;7.13;100.00;100340.06;7403725;19;19934;-71
2023/12/31 03:17:09;;;;;;;2.42;1.02;;;;;;;7.12;100.00;100331.19;7403768;19;19918;-71
2023/12/31 03:19:38;;;;;;;0.93;0.68;;;;;;;7.12;100.00;100325.84;7402711;19;19919;-71
2023/12/31 03:22:07;;;;;;;1.42;0.90;;;;;;;7.12;100.00;100325.03;7402900;19;19922;-71
2023/12/31 03:24:35;;;;;;;1.27;0.70;;;;;;;7.11;100.00;100318.00;7402925;19;20390;-71
2023/12/31 03:27:04;;;;;;;1.55;0.65;;;;;;;7.12;100.00;100304.41;7403433;19;19922;-71
2023/12/31 03:29:32;;;;;;;1.38;0.60;;;;;;;7.12;100.00;100301.72;7403252;19;19943;-71
2023/12/31 03:32:01;;;;;;;3.50;0.60;;;;;;;7.13;100.00;100295.38;7401718;19;19914;-71
2023/12/31 03:34:32;;;;;;;1.00;0.70;;;;;;;7.15;100.00;100282.66;7402935;19;19915;-71
2023/12/31 03:37:01;;;;;;;1.88;0.88;;;;;;;7.15;100.00;100277.31;7402923;19;19918;-72
2023/12/31 03:39:29;;;;;;;0.88;0.50;;;;;;;7.17;100.00;100274.44;7402860;19;19925;-71
2023/12/31 03:41:58;;;;;;;1.38;0.68;;;;;;;7.17;100.00;100269.91;7402655;19;19922;-71
2023/12/31 03:44:27;;;;;;;0.95;0.60;;;;;;;7.16;100.00;100270.91;7402405;19;19922;-71
2023/12/31 03:46:55;;;;;;;2.95;0.88;;;;;;;7.15;100.00;100266.59;7402416;19;19942;-71
2023/12/31 03:49:24;;;;;;;1.98;0.80;;;;;;;7.16;100.00;100257.53;7402596;19;19918;-71
2023/12/31 03:51:56;;;;;;;1.13;0.60;;;;;;;7.15;100.00;100258.56;7403519;19;19914;-71
2023/12/31 03:54:24;;;;;;;1.88;0.70;;;;;;;7.15;100.00;100261.25;7402002;19;20363;-71
2023/12/31 03:56:53;;;;;;;1.85;0.73;;;;;;;7.16;100.00;100257.53;7402358;19;19939;-71
2023/12/31 03:59:21;;;;;;;2.45;0.93;;;;;;;7.16;100.00;100259.41;7401676;19;19926;-71
2023/12/31 04:01:56;;;;;;;1.38;0.70;;;;;;;7.14;100.00;100239.97;7402391;19;19962;-71
2023/12/31 04:04:29;;;;;;;0.98;0.73;;;;;;;7.14;100.00;100251.53;7401383;19;19914;-71
2023/12/31 04:07:00;;;;;;;1.95;1.10;;;;;;;7.12;100.00;100245.47;7402346;19;20332;-71
2023/12/31 04:09:30;;;;;;;1.67;0.82;;;;;;;7.13;100.00;100244.50;7398542;19;20267;-71
2023/12/31 04:11:58;;;;;;;1.85;0.80;;;;;;;7.16;100.00;100233.41;7401985;19;19915;-71
2023/12/31 04:14:27;;;;;;;1.30;0.80;;;;;;;7.17;100.00;100224.38;7402247;19;19923;-71
2023/12/31 04:16:55;;;;;;;1.52;0.90;;;;;;;7.18;100.00;100222.56;7401482;19;20291;-71
2023/12/31 04:19:24;;;;;;;1.90;1.00;;;;;;;7.18;100.00;100225.22;7402333;19;19928;-71
2023/12/31 04:21:53;;;;;;;2.13;1.08;;;;;;;7.18;100.00;100206.47;7402227;19;20286;-71
2023/12/31 04:24:24;;;;;;;3.25;1.27;;;;;;;7.21;100.00;100208.81;7402625;19;20252;-71
2023/12/31 04:26:53;;;;;;;3.22;1.25;;;;;;;7.22;100.00;100207.81;7401030;19;19914;-70
2023/12/31 04:29:21;;;;;;;2.22;1.00;;;;;;;7.22;100.00;100192.56;7401136;19;19945;-71
2023/12/31 04:31:50;;;;;;;1.35;1.00;;;;;;;7.25;100.00;100196.72;7401344;19;19923;-71
2023/12/31 04:34:19;;;;;;;2.22;1.10;;;;;;;7.26;100.00;100193.91;7402423;19;20455;-72
2023/12/31 04:36:48;;;;;;;2.55;1.10;;;;;;;7.28;100.00;100186.53;7401688;19;20294;-71
2023/12/31 04:39:16;;;;;;;2.05;0.90;;;;;;;7.31;100.00;100185.34;7401956;19;19929;-71
2023/12/31 04:41:48;;;;;;;3.15;0.98;;;;;;;7.32;100.00;100170.94;7400747;19;19933;-71
2023/12/31 04:44:16;;;;;;;2.03;1.00;;;;;;;7.32;100.00;100167.44;7400791;19;19928;-71
2023/12/31 04:46:45;;;;;;;1.27;0.90;;;;;;;7.32;100.00;100162.91;7400753;19;20272;-71
2023/12/31 04:49:15;;;;;;;2.53;1.10;;;;;;;7.33;100.00;100145.00;7401309;19;19919;-71
2023/12/31 04:51:44;;;;;;;2.40;0.90;;;;;;;7.34;100.00;100144.78;7400722;19;20348;-71
2023/12/31 04:54:33;;;;;;;1.35;1.08;;;;;;;7.35;100.00;100142.97;7398251;19;19925;-71
2023/12/31 04:57:04;;;;;;;2.22;1.13;;;;;;;7.37;100.00;100136.44;7401999;19;20272;-71
2023/12/31 04:59:32;;;;;;;3.55;1.17;;;;;;;7.40;100.00;100129.88;7400063;19;20372;-71
2023/12/31 05:02:01;;;;;;;2.00;1.23;;;;;;;7.41;100.00;100129.72;7400888;19;19919;-70
2023/12/31 05:04:30;;;;;;;2.25;0.95;;;;;;;7.44;100.00;100126.69;7400126;19;19938;-70
2023/12/31 05:07:18;;;;;;;1.75;1.10;;;;;;;7.45;100.00;100123.00;7399905;19;20346;-71
2023/12/31 05:09:48;;;;;;;2.30;1.17;;;;;;;7.45;100.00;100120.31;7401180;19;20348;-70
2023/12/31 05:12:19;;;;;;;2.22;1.23;;;;;;;7.47;100.00;100109.41;7400688;19;19934;-71
2023/12/31 05:14:47;;;;;;;2.47;1.48;;;;;;;7.45;100.00;100108.75;7401215;19;19957;-70
2023/12/31 05:17:16;;;;;;;1.95;1.25;;;;;;;7.44;100.00;100104.41;7400409;19;19938;-71
2023/12/31 05:19:45;;;;;;;3.13;0.98;;;;;;;7.45;100.00;100096.19;7400897;19;19915;-70
2023/12/31 05:22:13;;;;;;;3.33;1.10;;;;;;;7.46;100.00;100094.34;7398255;19;19915;-70
2023/12/31 05:24:42;;;;;;;3.65;1.23;;;;;;;7.46;100.00;100089.84;7400894;19;20658;-70
2023/12/31 05:27:11;;;;;;;1.60;0.93;;;;;;;7.46;100.00;100081.78;7399326;19;19923;-71
2023/12/31 05:29:42;;;;;;;2.47;1.10;;;;;;;7.46;100.00;100076.44;7399639;19;19919;-70
2023/12/31 05:32:10;;;;;;;2.17;1.25;;;;;;;7.45;100.00;100066.72;7399916;19;19918;-71
2023/12/31 05:34:39;;;;;;;5.30;1.67;;;;;;;7.46;100.00;100070.25;7400191;19;19919;-71
2023/12/31 05:37:08;;;;;;;2.65;1.75;;;;;;;7.47;100.00;100067.38;7399594;19;19918;-71
2023/12/31 05:39:36;;;;;;;1.90;1.27;;;;;;;7.47;100.00;100061.16;7400189;19;19915;-71
2023/12/31 05:42:05;;;;;;;1.92;1.00;;;;;;;7.48;100.00;100054.81;7400079;19;19936;-71
2023/12/31 05:44:33;;;;;;;2.22;1.30;;;;;;;7.50;100.00;100050.13;7400718;19;19923;-70
2023/12/31 05:47:05;;;;;;;1.80;1.23;;;;;;;7.51;100.00;100044.56;7399737;19;20007;-70
2023/12/31 05:49:35;;;;;;;2.33;1.23;;;;;;;7.52;100.00;100026.63;7399235;19;19942;-71
2023/12/31 05:52:03;;;;;;;4.82;1.60;;;;;;;7.52;100.00;100022.09;7400070;19;20562;-71
2023/12/31 05:54:32;;;;;;;3.85;1.30;;;;;;;7.51;100.00;100022.28;7398533;19;19918;-71
2023/12/31 05:57:00;;;;;;;1.25;0.90;;;;;;;7.54;100.00;100024.63;7399851;19;19914;-71
2023/12/31 05:59:29;;;;;;;1.83;1.10;;;;;;;7.56;99.94;100018.06;7398539;19;20337;-71
2023/12/31 06:01:57;;;;;;;2.00;1.30;;;;;;;7.58;100.00;99999.97;7399462;19;19926;-71
2023/12/31 06:04:29;;;;;;;2.28;1.05;;;;;;;7.58;100.00;99993.78;7398150;19;19943;-71
2023/12/31 06:06:57;;;;;;;2.65;1.33;;;;;;;7.57;100.00;99995.63;7399232;19;19914;-70
2023/12/31 06:09:26;;;;;;;1.55;1.10;;;;;;;7.58;99.70;99999.13;7397905;19;19925;-71
2023/12/31 06:11:56;;;;;;;2.38;1.33;;;;;;;7.59;99.73;99992.75;7398185;19;19923;-71
2023/12/31 06:14:24;;;;;;;3.67;1.40;;;;;;;7.59;99.68;99979.38;7398060;19;19923;-70
2023/12/31 06:16:53;;;;;;;3.03;1.30;;;;;;;7.60;99.70;99975.66;7398769;19;19923;-70
2023/12/31 06:19:21;;;;;;;2.47;1.25;;;;;;;7.60;99.35;99971.13;7397750;19;20276;-70
2023/12/31 06:21:52;;;;;;;2.40;1.40;;;;;;;7.61;99.27;99961.25;7397983;19;19922;-71
2023/12/31 06:24:21;;;;;;;3.28;1.17;;;;;;;7.60;99.26;99967.59;7398265;19;19957;-71
2023/12/31 06:26:49;;;;;;;2.00;0.90;;;;;;;7.59;99.26;99957.91;7397450;19;19914;-70
2023/12/31 06:29:18;;;;;;;1.88;1.23;;;;;;;7.60;99.16;99951.53;7398378;19;19919;-71
2023/12/31 06:31:47;;;;;;;2.45;1.10;;;;;;;7.63;98.79;99951.19;7397703;19;19953;-71
2023/12/31 06:34:16;;;;;;;2.58;1.05;;;;;;;7.65;98.93;99944.63;7402746;19;19914;-71
2023/12/31 06:36:45;;;;;;;2.47;1.25;;;;;;;7.66;98.95;99937.41;7403050;19;19939;-71
2023/12/31 06:39:16;;;;;;;1.55;1.00;;;;;;;7.67;98.85;99939.09;7404091;19;19918;-70
2023/12/31 06:41:45;;;;;;;1.88;1.00;;;;;;;7.65;99.03;99939.25;7403604;19;19974;-70
2023/12/31 06:44:13;;;;;;;2.65;1.10;;;;;;;7.67;98.82;99936.41;7403881;19;19922;-71
2023/12/31 06:46:42;;;;;;;3.45;1.52;;;;;;;7.66;98.80;99943.59;7403174;19;19919;-70
2023/12/31 06:49:11;;;;;;;1.23;0.95;;;;;;;7.66;99.00;99935.56;7403738;19;19914;-71
2023/12/31 06:51:39;;;;;;;2.10;1.30;;;;;;;7.66;99.00;99937.41;7402983;19;19915;-71
2023/12/31 06:54:08;;;;;;;1.75;1.17;;;;;;;7.66;98.90;99929.38;7403742;19;19922;-71
2023/12/31 06:56:39;;;;;;;1.77;0.90;;;;;;;7.66;98.70;99921.31;7402937;19;19942;-71
2023/12/31 06:59:07;;;;;;;1.35;1.00;;;;;;;7.65;98.84;99925.00;7403905;19;20288;-71
2023/12/31 07:01:36;;;;;;;2.25;1.00;;;;;;;7.65;98.79;99925.00;7402484;19;20031;-71
2023/12/31 07:04:05;;;;;;;2.95;1.38;;;;;;;7.65;98.79;99917.81;7403422;19;19919;-71
2023/12/31 07:06:34;;;;;;;1.92;1.05;;;;;;;7.65;98.95;99915.13;7403429;19;19938;-71
2023/12/31 07:09:02;;;;;;;2.10;1.08;;;;;;;7.65;98.80;99909.78;7402949;19;19918;-70
2023/12/31 07:11:31;;;;;;;1.50;1.23;;;;;;;7.68;98.38;99904.03;7402738;19;19914;-70
2023/12/31 07:14:03;;;;;;;3.58;1.05;;;;;;;7.73;98.31;99908.84;7402885;19;19926;-71
2023/12/31 07:16:31;;;;;;;2.85;1.10;;;;;;;7.74;98.29;99905.16;7403042;19;19949;-71
2023/12/31 07:19:00;;;;;;;3.30;1.13;;;;;;;7.74;98.01;99900.63;7402375;19;19919;-70
2023/12/31 07:21:29;;;;;;;2.60;1.30;;;;;;;7.76;97.98;99900.47;7402697;19;19918;-71
2023/12/31 07:23:57;;;;;;;2.53;1.27;;;;;;;7.76;97.88;99900.47;7401779;19;19915;-71
2023/12/31 07:26:27;;;;;;;2.85;1.20;;;;;;;7.76;97.84;99892.44;7402753;19;19946;-71
2023/12/31 07:28:57;;;;;;;1.67;1.05;;;;;;;7.74;98.04;99889.91;7402746;19;20545;-71
2023/12/31 07:31:28;;;;;;;1.83;1.40;;;;;;;7.71;98.05;99866.16;7402961;19;19942;-71
2023/12/31 07:33:56;;;;;;;2.78;1.30;;;;;;;7.69;98.00;99870.84;7402194;19;19915;-71
2023/12/31 07:36:26;;;;;;;1.92;1.05;;;;;;;7.69;98.04;99875.38;7402216;19;19919;-71
2023/12/31 07:38:54;;;;;;;3.08;1.40;;;;;;;7.68;98.13;99865.66;7401622;19;19922;-71
2023/12/31 07:41:23;;;;;;;2.30;1.40;;;;;;;7.68;97.92;99860.31;7401838;19;19942;-71
2023/12/31 07:43:52;;;;;;;2.28;1.25;;;;;;;7.68;97.86;99854.94;7401797;19;19922;-70
2023/12/31 07:46:20;;;;;;;2.25;1.70;;;;;;;7.67;97.87;99864.03;7401295;19;19949;-71
2023/12/31 07:48:52;;;;;;;2.20;1.75;;;;;;;7.67;97.95;99853.31;7402946;19;19918;-71
2023/12/31 07:51:21;;;;;;;1.80;1.08;;;;;;;7.66;98.01;99851.63;7402118;19;19931;-71
2023/12/31 07:53:49;;;;;;;1.08;0.85;;;;;;;7.66;97.94;99844.44;7401785;19;20344;-71
2023/12/31 07:56:18;;;;;;;3.03;1.30;;;;;;;7.66;97.98;99844.44;7401882;19;19929;-70
2023/12/31 07:58:46;;;;;;;2.03;1.15;;;;;;;7.66;97.86;99840.91;7402765;19;19957;-71
2023/12/31 08:01:15;;;;;;;1.85;1.20;;;;;;;7.66;97.80;99841.75;7402355;19;19916;-71
2023/12/31 08:03:44;;;;;;;1.70;1.10;;;;;;;7.66;97.96;99833.72;7402791;19;19919;-71
2023/12/31 08:06:35;;;;;;;1.92;0.90;;;;;;;7.67;97.90;99837.22;7401252;19;20259;-71
2023/12/31 08:09:03;;;;;;;2.85;1.00;;;;;;;7.65;97.91;99839.25;7401224;19;19919;-71
2023/12/31 08:11:32;;;;;;;4.68;1.20;;;;;;;7.67;97.82;99837.22;7402100;19;19914;-71
2023/12/31 08:14:01;;;;;;;1.98;0.90;;;;;;;7.67;97.93;99831.88;7401492;19;19922;-71
2023/12/31 08:16:30;;;;;;;1.33;1.05;;;;;;;7.66;97.85;99819.47;7401903;19;19914;-71
2023/12/31 08:18:58;;;;;;;2.60;1.00;;;;;;;7.68;97.92;99825.47;7401169;19;20307;-71
2023/12/31 08:21:27;;;;;;;1.85;0.82;;;;;;;7.71;97.71;99817.06;7401243;19;19923;-71
2023/12/31 08:23:58;;;;;;;2.53;1.00;;;;;;;7.73;97.50;99804.31;7401177;19;20005;-71
2023/12/31 08:26:27;;;;;;;6.72;4.03;;;;;;;7.75;97.55;99807.66;7401639;19;19925;-71
2023/12/31 08:28:56;;;;;;;6.68;3.85;;;;;;;7.80;97.10;99804.41;7400463;19;19915;-70
2023/12/31 08:31:24;;;;;;;3.35;1.10;;;;;;;7.85;96.78;99807.38;7400786;19;19919;-71
2023/12/31 08:33:53;;;;;;;2.38;0.95;;;;;;;7.87;96.72;99808.84;7400732;19;19918;-70
2023/12/31 08:36:22;;;;;;;1.95;0.90;;;;;;;7.89;96.40;99798.78;7401687;19;19922;-71
2023/12/31 08:39:13;;;;;;;3.25;1.33;;;;;;;7.93;96.34;99800.06;7398238;19;20324;-71
2023/12/31 08:42:01;;;;;;;4.07;2.13;;;;;;;7.94;96.05;99793.66;7398754;19;19922;-72
2023/12/31 08:44:30;;;;;;;10.68;3.80;;;;;;;7.97;96.00;99797.84;7400960;19;19914;-71
2023/12/31 08:46:59;;;;;;;1.23;0.95;;;;;;;7.97;96.17;99787.94;7401763;19;20396;-72
2023/12/31 08:49:29;;;;;;;1.65;0.80;;;;;;;7.97;96.13;99782.59;7401984;19;19918;-71
2023/12/31 08:51:57;;;;;;;1.95;1.00;;;;;;;7.99;96.09;99777.84;7400345;19;20375;-71
2023/12/31 08:54:29;;;;;;;3.17;0.88;;;;;;;8.01;96.44;99775.81;7400558;19;19914;-71
2023/12/31 08:56:57;;;;;;;1.30;0.95;;;;;;;8.02;96.48;99771.28;7398501;19;19941;-71
2023/12/31 08:59:26;;;;;;;2.03;1.08;;;;;;;8.03;96.24;99767.56;7399843;19;19915;-72
2023/12/31 09:01:55;;;;;;;2.35;1.20;;;;;;;8.06;95.96;99759.16;7400367;19;19931;-71
2023/12/31 09:04:28;;;;;;;2.15;0.93;;;;;;;8.11;95.57;99748.72;7399707;19;20287;-71
2023/12/31 09:06:56;;;;;;;2.35;0.80;;;;;;;8.13;95.48;99750.19;7400788;19;19946;-71
2023/12/31 09:09:25;;;;;;;1.30;0.70;;;;;;;8.19;95.22;99756.66;7399778;19;20897;-71
2023/12/31 09:11:56;;;;;;;3.45;1.48;;;;;;;8.24;94.83;99753.41;7400607;19;19915;-71
2023/12/31 09:14:25;;;;;;;;;;;;;;;8.25;94.46;99771.13;7402870;19;19918;-71
2023/12/31 09:16:54;;;;;;;1.58;0.95;;;;;;;8.34;94.45;99756.63;7401116;19;19918;-71
2023/12/31 09:19:22;;;;;;;2.20;1.00;;;;;;;8.39;94.46;99762.25;7399636;19;19918;-72
2023/12/31 09:21:51;;;;;;;1.40;1.05;;;;;;;8.41;94.49;99747.66;7399770;19;19927;-72
2023/12/31 09:24:20;;;;;;;2.70;1.15;;;;;;;8.42;94.55;99743.91;7400179;19;19930;-72
2023/12/31 09:26:48;;;;;;;1.10;0.88;;;;;;;8.44;94.05;99746.41;7399976;19;19922;-72
2023/12/31 09:29:20;;;;;;;2.33;0.80;;;;;;;8.46;94.22;99760.47;7400188;19;19918;-72
2023/12/31 09:31:49;;;;;;;2.42;1.30;;;;;;;8.45;94.38;99756.13;7399647;19;20224;-72
2023/12/31 09:34:18;;;;;;;2.63;1.05;;;;;;;8.45;94.51;99754.28;7400087;19;19922;-72
2023/12/31 09:36:46;;;;;;;1.95;1.05;;;;;;;8.45;94.38;99734.66;7398764;19;19922;-72
2023/12/31 09:39:16;;;;;;;1.45;0.90;;;;;;;8.44;94.08;99727.63;7399481;19;19922;-72
2023/12/31 09:41:47;;;;;;;1.73;1.00;;;;;;;8.46;93.91;99722.88;7398367;19;20366;-72
2023/12/31 09:44:22;;;;;;;2.15;0.90;;;;;;;8.49;93.64;99725.22;7399817;19;19918;-72
2023/12/31 09:47:01;;;;;;;1.67;0.82;;;;;;;8.52;93.94;99716.75;7399497;19;19919;-71
2023/12/31 09:49:29;;;;;;;2.45;1.50;;;;;;;8.53;93.48;99731.84;7399008;19;19918;-71
2023/12/31 09:51:59;;;;;;;2.03;1.10;;;;;;;8.53;93.67;99719.28;7398724;19;19922;-71
2023/12/31 09:54:28;;;;;;;2.50;1.00;;;;;;;8.56;93.38;99713.50;7398902;19;20339;-71
2023/12/31 09:56:59;;;;;;;2.50;1.10;;;;;;;8.59;93.38;99709.59;7399250;19;19918;-71
2023/12/31 09:59:31;;;;;;;1.85;1.00;;;;;;;8.61;93.14;99703.03;7398010;19;20301;-71
2023/12/31 10:02:02;;;;;;;2.55;1.00;;;;;;;8.64;93.24;99694.59;7398979;19;19931;-72
2023/12/31 10:04:32;;;;;;;1.75;1.10;;;;;;;8.68;92.52;99686.97;7397375;19;19938;-72
2023/12/31 10:07:02;;;;;;;2.45;0.95;;;;;;;8.72;92.50;99680.19;7399185;19;19923;-71
2023/12/31 10:09:33;;;;;;;1.70;1.40;;;;;;;8.77;92.13;99671.53;7403757;19;19910;-72
2023/12/31 10:12:02;;;;;;;1.80;0.90;;;;;;;8.79;92.01;99675.72;7405025;19;19914;-71
2023/12/31 10:14:34;;;;;;;67.20;43.63;;;;;;;8.80;92.31;99671.97;7403600;19;19951;-71
2023/12/31 10:17:02;;;;;;;2.83;1.20;;;;;;;8.82;91.96;99653.81;7404058;19;19915;-72
2023/12/31 10:19:51;;;;;;;1.90;1.10;;;;;;;8.82;91.99;99645.78;7402097;19;19925;-71
2023/12/31 10:22:20;;;;;;;3.15;1.20;;;;;;;8.84;92.27;99657.16;7403512;19;20705;-72
2023/12/31 10:24:49;;;;;;;4.00;1.50;;;;;;;8.85;92.00;99645.38;7403889;19;20271;-71
2023/12/31 10:27:18;;;;;;;2.35;1.00;;;;;;;8.84;91.95;99633.00;7403200;19;19925;-72
2023/12/31 10:29:49;;;;;;;1.83;1.13;;;;;;;8.88;91.72;99628.06;7404879;19;19914;-72
2023/12/31 10:32:23;;;;;;;2.08;1.35;;;;;;;8.90;91.96;99626.00;7403732;19;19918;-72
2023/12/31 10:35:04;;;;;;;1.33;1.00;;;;;;;8.88;91.77;99617.31;7403361;19;20275;-72
2023/12/31 10:37:34;;;;;;;1.67;1.00;;;;;;;8.91;91.85;99615.06;7403765;19;19914;-72
2023/12/31 10:40:18;;;;;;;3.58;1.23;;;;;;;8.92;91.16;99603.28;7402738;19;19923;-71
2023/12/31 10:42:51;;;;;;;2.08;1.13;;;;;;;8.96;91.41;99599.19;7403499;19;20284;-70
2023/12/31 10:45:42;;;;;;;1.98;1.13;;;;;;;8.98;91.48;99598.97;7401459;19;19915;-72
2023/12/31 10:48:14;;;;;;;1.30;1.10;;;;;;;9.00;91.21;99595.06;7401951;19;20368;-71
2023/12/31 10:50:45;;;;;;;;;;;;;;;8.98;90.14;99594.44;7405554;19;20014;-71
2023/12/31 10:53:39;;;;;;;3.30;1.50;;;;;;;9.06;90.81;99580.84;7401800;19;19960;-71
2023/12/31 10:56:09;;;;;;;1.90;1.10;;;;;;;9.11;90.14;99586.44;7403148;19;20359;-71
2023/12/31 10:58:37;;;;;;;1.80;1.23;;;;;;;9.15;90.42;99578.00;7402936;19;19934;-71
2023/12/31 11:01:09;;;;;;;2.05;1.00;;;;;;;9.19;90.68;99584.66;7402693;19;19918;-71
2023/12/31 11:03:42;;;;;;;2.63;1.40;;;;;;;9.25;90.25;99591.88;7402930;19;19926;-71
2023/12/31 11:06:32;;;;;;;5.45;1.50;;;;;;;9.34;89.84;99582.63;7401947;19;19926;-71
2023/12/31 11:09:01;;;;;;;2.97;1.33;;;;;;;9.40;89.52;99579.16;7402891;19;19922;-71
2023/12/31 11:11:29;;;;;;;2.53;1.20;;;;;;;9.45;89.53;99577.50;7403753;19;19923;-71
2023/12/31 11:14:01;;;;;;;2.15;1.20;;;;;;;9.49;89.30;99572.56;7402413;19;19938;-71
2023/12/31 11:16:40;;;;;;;;;;;;;;;9.46;89.06;99567.56;7405102;19;19937;-71
2023/12/31 11:19:27;;;;;;;3.92;1.73;;;;;;;9.48;89.47;99566.38;7401194;19;20463;-71
2023/12/31 11:22:04;;;;;;;2.60;1.65;;;;;;;9.50;88.90;99561.59;7402056;19;19925;-71
2023/12/31 11:24:33;;;;;;;1.92;1.20;;;;;;;9.52;88.80;99553.34;7402971;19;19923;-71
2023/12/31 11:27:15;;;;;;;2.40;1.30;;;;;;;9.52;88.67;99562.25;7402646;19;19926;-71
2023/12/31 11:29:46;;;;;;;3.63;1.23;;;;;;;9.53;88.35;99557.69;7402829;19;19924;-71
2023/12/31 11:32:18;;;;;;;4.32;1.90;;;;;;;9.55;88.24;99545.69;7401644;19;19919;-71
2023/12/31 11:34:51;;;;;;;1.65;1.40;;;;;;;9.54;88.71;99538.66;7402757;19;19922;-71
2023/12/31 11:37:20;;;;;;;2.17;1.58;;;;;;;9.54;88.74;99538.66;7402869;19;19941;-71
2023/12/31 11:39:49;;;;;;;3.60;1.35;;;;;;;9.55;89.06;99534.09;7402560;19;20252;-71
2023/12/31 11:42:21;;;;;;;4.00;1.77;;;;;;;9.54;88.92;99541.34;7401658;19;19926;-71
2023/12/31 11:44:50;;;;;;;1.60;1.40;;;;;;;9.53;88.88;99538.88;7402082;19;19914;-71
2023/12/31 11:47:25;;;;;;;3.20;1.60;;;;;;;9.58;88.14;99539.91;7401048;19;19943;-71
2023/12/31 11:49:54;;;;;;;3.83;1.50;;;;;;;9.67;88.30;99537.03;7402497;19;19914;-71